Terminal Aerodrome Forecast
Issued by NWS

Home | Current Version | Previous Version | Graphics & Text | Print | Product List | Glossary On
Versions: 1 2 3 4 5 6 7 8 9 10 11 12 13 14 15 16 17 18
000
FTUS43 KICT 232339
TAFHUT
TAF
KHUT 232339Z 2400/2424 33016G24KT P6SM -SN SCT009 OVC015
      TEMPO 2400/2403 4SM -SN BKN009 OVC015
     FM240400 34016G23KT P6SM OVC015
     FM241600 34015G20KT P6SM SCT020 BKN035=

USA.gov is the U.S. government's official web portal to all federal, state and local government web resources and services.